createdAt,value
2022-10-17T00:00:35.745Z,15.50
2022-10-17T00:03:02.490Z,15.45
2022-10-17T00:05:28.997Z,15.41
2022-10-17T00:07:55.558Z,15.36
2022-10-17T00:10:22.494Z,15.31
2022-10-17T00:12:50.796Z,15.26
2022-10-17T00:15:19.544Z,15.22
2022-10-17T00:17:45.984Z,15.20
2022-10-17T00:20:13.424Z,15.20
2022-10-17T00:22:39.972Z,15.18
2022-10-17T00:25:06.625Z,15.15
2022-10-17T00:27:37.628Z,15.09
2022-10-17T00:30:05.685Z,15.05
2022-10-17T00:32:32.139Z,15.02
2022-10-17T00:34:59.032Z,15.00
2022-10-17T00:37:25.448Z,15.01
2022-10-17T00:39:51.871Z,15.00
2022-10-17T00:42:18.288Z,14.99
2022-10-17T00:44:47.361Z,14.96
2022-10-17T00:47:17.241Z,14.91
2022-10-17T00:49:43.806Z,14.90
2022-10-17T00:52:36.947Z,14.89
2022-10-17T00:55:15.370Z,14.89
2022-10-17T00:57:42.973Z,14.90
2022-10-17T01:00:10.353Z,14.86
2022-10-17T01:02:37.428Z,14.79
2022-10-17T01:05:04.561Z,14.78
2022-10-17T01:07:34.701Z,14.78
2022-10-17T01:10:05.817Z,14.76
2022-10-17T01:13:00.354Z,14.73
2022-10-17T01:16:01.177Z,14.72
2022-10-17T01:18:36.512Z,14.71
2022-10-17T01:21:39.134Z,14.70
2022-10-17T01:24:32.157Z,14.68
2022-10-17T01:27:30.229Z,14.68
2022-10-17T01:30:09.932Z,14.68
2022-10-17T01:32:40.366Z,14.67
2022-10-17T01:35:15.962Z,14.68
2022-10-17T01:38:15.845Z,14.70
2022-10-17T01:40:49.643Z,14.78
2022-10-17T01:43:37.191Z,14.81
2022-10-17T01:46:12.864Z,14.82
2022-10-17T01:48:41.088Z,14.88
2022-10-17T01:51:29.079Z,14.88
2022-10-17T01:54:07.260Z,15.02
2022-10-17T01:56:35.109Z,15.18
2022-10-17T01:59:05.553Z,15.30
2022-10-17T02:01:32.356Z,15.43
2022-10-17T02:04:00.943Z,15.58
2022-10-17T02:06:27.734Z,15.75
2022-10-17T02:08:55.619Z,15.97
2022-10-17T02:11:24.238Z,16.21
2022-10-17T02:14:00.330Z,16.41
2022-10-17T02:16:37.508Z,16.48
2022-10-17T02:19:26.971Z,16.58
2022-10-17T02:22:12.860Z,16.77
2022-10-17T02:24:49.700Z,16.88
2022-10-17T02:27:35.255Z,16.91
2022-10-17T02:30:09.708Z,16.99
2022-10-17T02:32:55.765Z,17.01
2022-10-17T02:35:23.325Z,17.12
2022-10-17T02:37:51.121Z,17.22
2022-10-17T02:40:21.058Z,17.26
2022-10-17T02:42:48.153Z,17.28
2022-10-17T02:45:14.757Z,17.29
2022-10-17T02:47:52.511Z,17.35
2022-10-17T02:50:22.769Z,17.38
2022-10-17T02:52:55.975Z,17.44
2022-10-17T02:55:36.136Z,17.59
2022-10-17T02:58:07.161Z,17.61
2022-10-17T03:00:40.164Z,17.68
2022-10-17T03:03:42.225Z,17.77
2022-10-17T03:06:08.680Z,17.80
2022-10-17T03:08:35.460Z,17.81
2022-10-17T03:11:02.507Z,17.75
2022-10-17T03:13:30.541Z,17.62
2022-10-17T03:15:57.443Z,17.46
2022-10-17T03:18:24.149Z,17.27
2022-10-17T03:20:55.344Z,17.07
2022-10-17T03:23:21.728Z,16.89
2022-10-17T03:25:48.281Z,16.78
2022-10-17T03:28:15.764Z,16.66
2022-10-17T03:30:42.220Z,16.50
2022-10-17T03:33:09.200Z,16.42
2022-10-17T03:35:39.845Z,16.36
2022-10-17T03:38:07.483Z,16.30
2022-10-17T03:40:33.918Z,16.22
2022-10-17T03:43:00.519Z,16.18
2022-10-17T03:45:28.504Z,16.11
2022-10-17T03:47:55.788Z,15.98
2022-10-17T03:50:22.200Z,15.90
2022-10-17T03:52:49.228Z,15.84
2022-10-17T03:55:16.482Z,15.82
2022-10-17T03:57:45.429Z,15.78
2022-10-17T04:00:13.361Z,15.74
2022-10-17T04:02:51.233Z,15.66
2022-10-17T04:05:18.998Z,15.61
2022-10-17T04:07:46.393Z,15.55
2022-10-17T04:10:14.521Z,15.50
2022-10-17T04:12:41.665Z,15.44
2022-10-17T04:15:08.816Z,15.36
2022-10-17T04:17:38.102Z,15.34
2022-10-17T04:20:05.934Z,15.29
2022-10-17T04:22:32.407Z,15.24
2022-10-17T04:24:58.943Z,15.20
2022-10-17T04:27:31.484Z,15.16
2022-10-17T04:29:57.983Z,15.12
2022-10-17T04:32:25.792Z,15.10
2022-10-17T04:35:06.991Z,15.10
2022-10-17T04:37:33.436Z,15.06
2022-10-17T04:40:02.771Z,15.03
2022-10-17T04:42:32.091Z,15.04
2022-10-17T04:44:58.978Z,15.02
2022-10-17T04:47:26.480Z,15.00
2022-10-17T04:49:52.942Z,14.95
2022-10-17T04:52:21.689Z,14.90
2022-10-17T04:54:49.829Z,14.89
2022-10-17T04:57:17.150Z,14.86
2022-10-17T04:59:51.933Z,14.82
2022-10-17T05:02:24.955Z,14.79
2022-10-17T05:04:51.900Z,14.74
2022-10-17T05:07:19.923Z,14.72
2022-10-17T05:10:03.555Z,14.66
2022-10-17T05:12:31.780Z,14.65
2022-10-17T05:14:58.391Z,14.64
2022-10-17T05:17:26.045Z,14.63
2022-10-17T05:19:52.470Z,14.61
2022-10-17T05:22:19.025Z,14.59
2022-10-17T05:24:45.749Z,14.56
2022-10-17T05:27:13.337Z,14.52
2022-10-17T05:29:40.175Z,14.49
2022-10-17T05:32:32.670Z,14.44
2022-10-17T05:34:59.357Z,14.37
2022-10-17T05:37:26.268Z,14.35
2022-10-17T05:39:55.410Z,14.34
2022-10-17T05:42:22.176Z,14.32
2022-10-17T05:44:48.632Z,14.32
2022-10-17T05:47:17.864Z,14.30
2022-10-17T05:49:48.597Z,14.29
2022-10-17T05:52:20.784Z,14.25
2022-10-17T05:55:05.861Z,14.24
2022-10-17T05:57:32.360Z,14.24
2022-10-17T06:00:00.779Z,14.24
2022-10-17T06:02:29.175Z,14.23
2022-10-17T06:04:55.992Z,14.22
2022-10-17T06:07:23.736Z,14.19
2022-10-17T06:09:50.721Z,14.17
2022-10-17T06:12:17.719Z,14.13
2022-10-17T06:14:45.020Z,14.11
2022-10-17T06:17:16.071Z,14.07
2022-10-17T06:19:44.673Z,14.06
2022-10-17T06:22:12.407Z,14.08
2022-10-17T06:24:40.753Z,14.13
2022-10-17T06:27:11.020Z,14.14
2022-10-17T06:29:39.386Z,14.16
2022-10-17T06:32:08.655Z,14.20
2022-10-17T06:34:38.375Z,14.19
2022-10-17T06:37:04.876Z,14.19
2022-10-17T06:39:34.677Z,14.19
2022-10-17T06:42:08.156Z,14.19
2022-10-17T06:44:53.311Z,14.21
2022-10-17T06:47:22.380Z,14.22
2022-10-17T06:49:51.373Z,14.22
2022-10-17T06:52:29.296Z,14.22
2022-10-17T06:55:31.934Z,14.21
2022-10-17T06:58:13.168Z,14.21
2022-10-17T07:00:49.578Z,14.19
2022-10-17T07:03:17.253Z,14.18
2022-10-17T07:05:51.556Z,14.17
2022-10-17T07:08:17.984Z,14.19
2022-10-17T07:10:44.552Z,14.20
2022-10-17T07:13:11.000Z,14.20
2022-10-17T07:15:38.312Z,14.21
2022-10-17T07:18:05.637Z,14.20
2022-10-17T07:20:32.178Z,14.21
2022-10-17T07:22:58.584Z,14.23
2022-10-17T07:25:25.008Z,14.24
2022-10-17T07:27:55.959Z,14.27
2022-10-17T07:30:23.346Z,14.25
2022-10-17T07:32:58.557Z,14.25
2022-10-17T07:35:25.114Z,14.28
2022-10-17T07:37:51.857Z,14.28
2022-10-17T07:40:20.094Z,14.29
2022-10-17T07:42:47.199Z,14.29
2022-10-17T07:45:13.650Z,14.31
2022-10-17T07:47:42.980Z,14.31
2022-10-17T07:50:10.392Z,14.31
2022-10-17T07:52:36.839Z,14.32
2022-10-17T07:55:03.430Z,14.35
2022-10-17T07:57:29.829Z,14.39
2022-10-17T07:59:56.573Z,14.43
2022-10-17T08:02:27.155Z,14.47
2022-10-17T08:04:54.048Z,14.51
2022-10-17T08:07:25.327Z,14.56
2022-10-17T08:09:54.957Z,14.62
2022-10-17T08:12:21.885Z,14.66
2022-10-17T08:14:48.296Z,14.72
2022-10-17T08:17:14.727Z,14.75
2022-10-17T08:19:41.219Z,14.80
2022-10-17T08:22:08.012Z,14.85
2022-10-17T08:24:34.560Z,14.89
2022-10-17T08:27:01.264Z,14.96
2022-10-17T08:29:27.891Z,15.03
2022-10-17T08:31:58.672Z,15.12
2022-10-17T08:34:27.948Z,15.19
2022-10-17T08:36:54.382Z,15.22
2022-10-17T08:39:20.859Z,15.28
2022-10-17T08:42:05.881Z,15.35
2022-10-17T08:45:06.656Z,15.43
2022-10-17T08:47:37.295Z,15.49
2022-10-17T08:50:06.274Z,15.55
2022-10-17T08:52:32.555Z,15.64
2022-10-17T08:54:59.603Z,15.68
2022-10-17T08:57:26.031Z,15.73
2022-10-17T08:59:53.675Z,15.79
2022-10-17T09:02:38.511Z,15.88
2022-10-17T09:05:32.650Z,15.96
2022-10-17T09:08:31.865Z,16.02
2022-10-17T09:11:02.223Z,16.10
2022-10-17T09:14:00.660Z,16.15
2022-10-17T09:16:43.400Z,16.19
2022-10-17T09:19:17.427Z,16.24
2022-10-17T09:21:48.560Z,16.31
2022-10-17T09:24:22.337Z,16.36
2022-10-17T09:26:49.029Z,16.41
2022-10-17T09:29:20.260Z,16.42
2022-10-17T09:32:00.974Z,16.48
2022-10-17T09:34:28.516Z,16.52
2022-10-17T09:36:55.245Z,16.54
2022-10-17T09:39:24.557Z,16.53
2022-10-17T09:41:55.812Z,16.50
2022-10-17T09:44:31.072Z,16.55
2022-10-17T09:47:15.314Z,16.61
2022-10-17T09:49:44.366Z,16.68
2022-10-17T09:52:18.571Z,16.75
2022-10-17T09:54:57.565Z,16.78
2022-10-17T09:57:24.215Z,16.82
2022-10-17T10:00:03.070Z,16.90
2022-10-17T10:02:31.063Z,17.02
2022-10-17T10:05:05.916Z,17.15
2022-10-17T10:07:37.334Z,17.27
2022-10-17T10:10:06.627Z,17.36
2022-10-17T10:12:38.085Z,17.46
2022-10-17T10:15:31.357Z,17.59
2022-10-17T10:17:57.743Z,17.77
2022-10-17T10:20:30.583Z,17.98
2022-10-17T10:23:20.980Z,18.13
2022-10-17T10:25:54.801Z,18.24
2022-10-17T10:28:23.644Z,18.28
2022-10-17T10:30:51.221Z,18.28
2022-10-17T10:33:20.946Z,18.37
2022-10-17T10:35:59.571Z,18.47
2022-10-17T10:38:26.188Z,18.60
2022-10-17T10:41:02.980Z,18.77
2022-10-17T10:43:35.882Z,18.81
2022-10-17T10:46:04.516Z,18.84
2022-10-17T10:48:35.113Z,18.91
2022-10-17T10:51:12.410Z,18.99
2022-10-17T10:53:46.023Z,19.12
2022-10-17T10:56:26.133Z,19.21
2022-10-17T10:59:20.646Z,19.29
2022-10-17T11:01:51.904Z,19.34
2022-10-17T11:04:29.289Z,19.33
2022-10-17T11:07:02.184Z,19.36
2022-10-17T11:09:35.932Z,19.47
2022-10-17T11:12:07.552Z,19.60
2022-10-17T11:15:07.798Z,19.65
2022-10-17T11:17:42.704Z,19.67
2022-10-17T11:20:08.979Z,19.75
2022-10-17T11:22:43.144Z,19.81
2022-10-17T11:25:12.402Z,19.89
2022-10-17T11:27:38.931Z,19.98
2022-10-17T11:30:05.928Z,20.08
2022-10-17T11:32:45.001Z,20.14
2022-10-17T11:35:27.837Z,20.22
2022-10-17T11:38:36.333Z,20.28
2022-10-17T11:41:04.055Z,20.32
2022-10-17T11:43:42.211Z,20.36
2022-10-17T11:46:17.251Z,20.39
2022-10-17T11:48:48.844Z,20.44
2022-10-17T11:54:11.107Z,20.54
2022-10-17T11:56:55.747Z,20.60
2022-10-17T11:59:43.359Z,20.63
2022-10-17T12:02:15.265Z,20.69
2022-10-17T12:04:52.827Z,20.76
2022-10-17T12:07:55.566Z,20.81
2022-10-17T12:10:39.228Z,20.91
2022-10-17T12:13:28.246Z,20.98
2022-10-17T12:15:57.819Z,21.04
2022-10-17T12:18:25.553Z,21.11
2022-10-17T12:20:59.553Z,21.16
2022-10-17T12:23:28.079Z,21.20
2022-10-17T12:26:05.269Z,21.25
2022-10-17T12:28:38.138Z,21.31
2022-10-17T12:31:09.895Z,21.27
2022-10-17T12:33:49.392Z,21.29
2022-10-17T12:36:18.724Z,21.22
2022-10-17T12:38:49.934Z,21.18
2022-10-17T12:41:17.299Z,21.24
2022-10-17T12:46:42.787Z,21.27
2022-10-17T12:49:46.194Z,21.31
2022-10-17T12:52:21.827Z,21.35
2022-10-17T12:55:18.323Z,21.34
2022-10-17T12:57:58.521Z,21.37
2022-10-17T13:00:49.704Z,21.47
2022-10-17T13:03:26.793Z,21.56
2022-10-17T13:05:59.512Z,21.63
2022-10-17T13:08:40.011Z,21.67
2022-10-17T13:11:07.806Z,21.72
2022-10-17T13:13:47.435Z,21.62
2022-10-17T13:16:34.493Z,21.67
2022-10-17T13:19:02.512Z,21.72
2022-10-17T13:21:29.536Z,21.79
2022-10-17T13:23:56.285Z,21.82
2022-10-17T13:26:25.660Z,21.87
2022-10-17T13:29:13.625Z,21.96
2022-10-17T13:31:42.872Z,22.07
2022-10-17T13:34:20.824Z,22.02
2022-10-17T13:36:48.986Z,21.95
2022-10-17T13:39:23.040Z,21.87
2022-10-17T13:41:59.041Z,21.93
2022-10-17T13:44:32.848Z,21.96
2022-10-17T13:46:59.465Z,21.95
2022-10-17T13:49:42.451Z,21.94
2022-10-17T13:52:21.388Z,21.96
2022-10-17T13:54:53.711Z,21.97
2022-10-17T13:57:38.289Z,21.93
2022-10-17T14:00:11.407Z,21.87
2022-10-17T14:02:42.658Z,21.92
2022-10-17T14:05:18.246Z,21.92
2022-10-17T14:08:11.240Z,21.94
2022-10-17T14:10:40.435Z,22.06
2022-10-17T14:13:10.687Z,21.99
2022-10-17T14:15:37.587Z,21.90
2022-10-17T14:18:08.937Z,21.88
2022-10-17T14:23:46.291Z,21.84
2022-10-17T14:26:16.713Z,21.79
2022-10-17T14:28:46.881Z,21.73
2022-10-17T14:31:25.891Z,21.65
2022-10-17T14:33:52.700Z,21.53
2022-10-17T14:36:20.694Z,21.42
2022-10-17T14:38:50.020Z,21.38
2022-10-17T14:41:41.982Z,21.34
2022-10-17T14:44:20.437Z,21.26
2022-10-17T14:46:51.092Z,21.20
2022-10-17T14:49:24.777Z,21.14
2022-10-17T14:52:29.210Z,21.04
2022-10-17T14:54:56.637Z,20.99
2022-10-17T14:57:34.320Z,20.93
2022-10-17T15:00:00.700Z,20.87
2022-10-17T15:02:29.901Z,20.85
2022-10-17T15:04:56.790Z,20.79
2022-10-17T15:07:24.030Z,20.77
2022-10-17T15:09:52.224Z,20.71
2022-10-17T15:12:21.245Z,20.67
2022-10-17T15:14:51.491Z,20.59
2022-10-17T15:17:20.773Z,20.55
2022-10-17T15:19:47.948Z,20.53
2022-10-17T15:22:15.934Z,20.51
2022-10-17T15:24:42.340Z,20.46
2022-10-17T15:27:17.437Z,20.39
2022-10-17T15:29:44.018Z,20.35
2022-10-17T15:32:10.405Z,20.33
2022-10-17T15:34:36.948Z,20.32
2022-10-17T15:37:04.328Z,20.32
2022-10-17T15:39:30.754Z,20.30
2022-10-17T15:41:57.347Z,20.31
2022-10-17T15:44:23.732Z,20.30
2022-10-17T15:46:50.145Z,20.28
2022-10-17T15:49:18.490Z,20.29
2022-10-17T15:51:44.995Z,20.27
2022-10-17T15:56:43.280Z,20.23
2022-10-17T15:59:16.031Z,20.16
2022-10-17T16:01:42.571Z,20.10
2022-10-17T16:04:14.805Z,20.06
2022-10-17T16:06:44.679Z,20.03
2022-10-17T16:09:11.113Z,20.00
2022-10-17T16:11:40.134Z,19.95
2022-10-17T16:14:10.403Z,19.91
2022-10-17T16:16:36.827Z,19.85
2022-10-17T16:19:03.610Z,19.81
2022-10-17T16:21:32.684Z,19.76
2022-10-17T16:23:59.108Z,19.71
2022-10-17T16:26:25.484Z,19.66
2022-10-17T16:28:51.968Z,19.59
2022-10-17T16:31:22.472Z,19.53
2022-10-17T16:33:50.476Z,19.50
2022-10-17T16:36:16.944Z,19.47
2022-10-17T16:38:43.603Z,19.43
2022-10-17T16:41:20.304Z,19.38
2022-10-17T16:43:48.139Z,19.32
2022-10-17T16:46:14.615Z,19.27
2022-10-17T16:48:41.919Z,19.25
2022-10-17T16:51:08.384Z,19.22
2022-10-17T16:53:34.769Z,19.18
2022-10-17T17:27:48.333Z,18.69
2022-10-17T17:30:33.370Z,18.68
2022-10-17T17:36:32.664Z,18.67
2022-10-17T17:39:23.043Z,18.70
2022-10-17T17:42:02.223Z,18.74
2022-10-17T17:44:51.937Z,18.76
2022-10-17T17:47:46.212Z,18.77
2022-10-17T17:51:00.929Z,18.79
2022-10-17T17:53:47.159Z,18.81
2022-10-17T18:00:10.634Z,18.75
2022-10-17T18:03:20.578Z,18.73
2022-10-17T18:09:14.073Z,18.65
2022-10-17T18:12:26.486Z,18.64
2022-10-17T18:24:48.297Z,18.49
2022-10-17T18:37:14.499Z,18.51
2022-10-17T18:40:26.706Z,18.50
2022-10-17T18:43:31.978Z,18.54
2022-10-17T19:06:30.127Z,18.50
2022-10-17T19:18:27.114Z,18.48
2022-10-17T19:21:53.627Z,18.47
2022-10-17T19:27:31.604Z,18.44
2022-10-17T19:30:14.894Z,18.37
2022-10-17T19:35:53.982Z,18.33
2022-10-17T19:39:12.597Z,18.35
2022-10-17T19:45:19.196Z,18.31
2022-10-17T19:54:17.545Z,18.24
2022-10-17T20:00:21.399Z,18.24
2022-10-17T20:15:04.396Z,18.29
2022-10-17T20:20:54.173Z,18.29
2022-10-17T20:26:38.152Z,18.32
2022-10-17T20:32:39.505Z,18.37
2022-10-17T20:35:28.357Z,18.37
2022-10-17T20:38:08.663Z,18.36
2022-10-17T20:41:02.153Z,18.36
2022-10-17T20:43:39.826Z,18.37
2022-10-17T20:46:36.374Z,18.36
2022-10-17T20:58:02.921Z,18.37
2022-10-17T21:01:29.152Z,18.37
2022-10-17T21:04:47.590Z,18.38
2022-10-17T21:07:19.624Z,18.40
2022-10-17T21:13:14.789Z,18.38
2022-10-17T21:15:41.309Z,18.36
2022-10-17T21:18:07.825Z,18.35
2022-10-17T21:20:34.284Z,18.35
2022-10-17T21:23:00.781Z,18.33
2022-10-17T21:25:27.500Z,18.30
2022-10-17T21:27:54.063Z,18.28
2022-10-17T21:30:21.634Z,18.26
2022-10-17T21:32:51.639Z,18.26
2022-10-17T21:35:18.514Z,18.25
2022-10-17T21:37:44.950Z,18.22
2022-10-17T21:40:12.206Z,18.21
2022-10-17T21:42:38.664Z,18.19
2022-10-17T21:45:10.766Z,18.19
2022-10-17T21:47:54.874Z,18.18
2022-10-17T21:50:27.687Z,18.13
2022-10-17T21:52:54.165Z,18.11
2022-10-17T21:55:20.605Z,18.11
2022-10-17T21:57:47.121Z,18.10
2022-10-17T22:00:14.050Z,18.10
2022-10-17T22:02:40.459Z,18.06
2022-10-17T22:05:07.205Z,18.05
2022-10-17T22:07:33.981Z,18.04
2022-10-17T22:10:00.602Z,18.01
2022-10-17T22:12:27.139Z,18.01
2022-10-17T22:14:53.666Z,17.99
2022-10-17T22:17:20.121Z,17.97
2022-10-17T22:19:47.249Z,17.96
2022-10-17T22:22:13.882Z,17.95
2022-10-17T22:24:40.418Z,17.97
2022-10-17T22:27:07.078Z,17.96
2022-10-17T22:29:34.343Z,17.96
2022-10-17T22:32:00.766Z,17.95
2022-10-17T22:34:27.276Z,17.94
2022-10-17T22:36:53.989Z,17.93
2022-10-17T22:39:20.609Z,17.95
2022-10-17T22:41:47.121Z,17.95
2022-10-17T22:44:13.683Z,17.99
2022-10-17T22:46:40.150Z,17.98
2022-10-17T22:49:09.515Z,17.94
2022-10-17T22:51:35.998Z,17.92
2022-10-17T22:54:02.452Z,17.91
2022-10-17T22:56:28.923Z,17.92
2022-10-17T22:58:55.471Z,17.90
2022-10-17T23:01:23.459Z,17.91
2022-10-17T23:03:51.451Z,17.89
2022-10-17T23:06:20.815Z,17.87
2022-10-17T23:08:47.597Z,17.85
2022-10-17T23:11:14.082Z,17.83
2022-10-17T23:13:41.602Z,17.79
2022-10-17T23:16:08.369Z,17.78
2022-10-17T23:18:34.959Z,17.77
2022-10-17T23:21:01.397Z,17.74
2022-10-17T23:23:27.797Z,17.72
2022-10-17T23:25:54.272Z,17.69
2022-10-17T23:28:20.712Z,17.66
2022-10-17T23:30:47.168Z,17.63
2022-10-17T23:33:14.074Z,17.55
2022-10-17T23:35:40.660Z,17.52
2022-10-17T23:38:07.132Z,17.49
2022-10-17T23:40:34.741Z,17.46
2022-10-17T23:43:01.283Z,17.43
2022-10-17T23:45:27.776Z,17.43
2022-10-17T23:47:56.325Z,17.44
2022-10-17T23:50:22.713Z,17.43
2022-10-17T23:52:49.133Z,17.42
2022-10-17T23:55:16.151Z,17.42
2022-10-17T23:57:42.569Z,17.42
